sensor_id;sensor_type;location;lat;lon;timestamp;pressure;altitude;pressure_sealevel;temperature;humidity
25430;BME280;13360;48.152;-1.788;2023-02-28T00:00:49;102610.50;;;6.52;100.00
25430;BME280;13360;48.152;-1.788;2023-02-28T00:03:15;102612.19;;;6.53;100.00
25430;BME280;13360;48.152;-1.788;2023-02-28T00:05:40;102613.88;;;6.54;100.00
25430;BME280;13360;48.152;-1.788;2023-02-28T00:08:07;102609.28;;;6.48;100.00
25430;BME280;13360;48.152;-1.788;2023-02-28T00:10:32;102620.25;;;6.48;100.00
25430;BME280;13360;48.152;-1.788;2023-02-28T00:13:04;102609.94;;;6.43;100.00
25430;BME280;13360;48.152;-1.788;2023-02-28T00:15:30;102617.78;;;6.40;100.00
25430;BME280;13360;48.152;-1.788;2023-02-28T00:17:56;102613.97;;;6.41;100.00
25430;BME280;13360;48.152;-1.788;2023-02-28T00:20:22;102610.59;;;6.39;100.00
25430;BME280;13360;48.152;-1.788;2023-02-28T00:22:49;102621.19;;;6.35;100.00
25430;BME280;13360;48.152;-1.788;2023-02-28T00:25:17;102610.44;;;6.34;100.00
25430;BME280;13360;48.152;-1.788;2023-02-28T00:27:44;102614.03;;;6.34;100.00
25430;BME280;13360;48.152;-1.788;2023-02-28T00:30:12;102604.56;;;6.30;100.00
25430;BME280;13360;48.152;-1.788;2023-02-28T00:32:38;102614.72;;;6.30;100.00
25430;BME280;13360;48.152;-1.788;2023-02-28T00:35:04;102619.81;;;6.26;100.00
25430;BME280;13360;48.152;-1.788;2023-02-28T00:37:30;102631.88;;;6.19;100.00
25430;BME280;13360;48.152;-1.788;2023-02-28T00:39:55;102618.75;;;6.21;100.00
25430;BME280;13360;48.152;-1.788;2023-02-28T00:42:21;102614.97;;;6.22;100.00
25430;BME280;13360;48.152;-1.788;2023-02-28T00:44:47;102608.63;;;6.21;100.00
25430;BME280;13360;48.152;-1.788;2023-02-28T00:47:12;102623.81;;;6.24;100.00
25430;BME280;13360;48.152;-1.788;2023-02-28T00:49:37;102621.06;;;6.24;100.00
25430;BME280;13360;48.152;-1.788;2023-02-28T00:52:03;102611.78;;;6.25;100.00
25430;BME280;13360;48.152;-1.788;2023-02-28T00:54:28;102623.63;;;6.25;100.00
25430;BME280;13360;48.152;-1.788;2023-02-28T00:56:54;102610.31;;;6.22;100.00
25430;BME280;13360;48.152;-1.788;2023-02-28T00:59:19;102617.09;;;6.20;100.00
25430;BME280;13360;48.152;-1.788;2023-02-28T01:01:45;102626.59;;;6.17;100.00
25430;BME280;13360;48.152;-1.788;2023-02-28T01:04:11;102627.50;;;6.11;100.00
25430;BME280;13360;48.152;-1.788;2023-02-28T01:06:36;102630.25;;;6.11;100.00
25430;BME280;13360;48.152;-1.788;2023-02-28T01:09:04;102624.97;;;6.09;100.00
25430;BME280;13360;48.152;-1.788;2023-02-28T01:11:30;102629.41;;;6.10;100.00
25430;BME280;13360;48.152;-1.788;2023-02-28T01:13:55;102623.06;;;6.10;100.00
25430;BME280;13360;48.152;-1.788;2023-02-28T01:16:21;102618.25;;;6.05;100.00
25430;BME280;13360;48.152;-1.788;2023-02-28T01:18:46;102630.06;;;6.06;100.00
25430;BME280;13360;48.152;-1.788;2023-02-28T01:21:15;102624.16;;;6.02;100.00
25430;BME280;13360;48.152;-1.788;2023-02-28T01:23:41;102617.63;;;6.03;100.00
25430;BME280;13360;48.152;-1.788;2023-02-28T01:26:17;102617.44;;;5.98;100.00
25430;BME280;13360;48.152;-1.788;2023-02-28T01:28:43;102611.78;;;5.93;100.00
25430;BME280;13360;48.152;-1.788;2023-02-28T01:31:10;102614.97;;;5.90;100.00
25430;BME280;13360;48.152;-1.788;2023-02-28T01:33:35;102626.97;;;5.89;100.00
25430;BME280;13360;48.152;-1.788;2023-02-28T01:36:13;102626.97;;;5.89;100.00
25430;BME280;13360;48.152;-1.788;2023-02-28T01:38:40;102626.13;;;5.89;100.00
25430;BME280;13360;48.152;-1.788;2023-02-28T01:41:07;102619.81;;;5.88;100.00
25430;BME280;13360;48.152;-1.788;2023-02-28T01:46:11;102633.34;;;5.90;100.00
25430;BME280;13360;48.152;-1.788;2023-02-28T01:48:40;102630.38;;;5.91;100.00
25430;BME280;13360;48.152;-1.788;2023-02-28T01:51:14;102638.38;;;5.86;100.00
25430;BME280;13360;48.152;-1.788;2023-02-28T01:53:47;102628.25;;;5.80;100.00
25430;BME280;13360;48.152;-1.788;2023-02-28T01:56:19;102636.28;;;5.81;100.00
25430;BME280;13360;48.152;-1.788;2023-02-28T01:58:51;102629.34;;;5.79;100.00
25430;BME280;13360;48.152;-1.788;2023-02-28T02:01:18;102628.72;;;5.77;100.00
25430;BME280;13360;48.152;-1.788;2023-02-28T02:03:58;102631.91;;;5.74;100.00
25430;BME280;13360;48.152;-1.788;2023-02-28T02:06:32;102629.38;;;5.72;100.00
25430;BME280;13360;48.152;-1.788;2023-02-28T02:08:59;102632.72;;;5.74;100.00
25430;BME280;13360;48.152;-1.788;2023-02-28T02:11:25;102629.38;;;5.72;100.00
25430;BME280;13360;48.152;-1.788;2023-02-28T02:14:16;102631.72;;;5.69;100.00
25430;BME280;13360;48.152;-1.788;2023-02-28T02:36:45;102640.59;;;5.58;100.00
25430;BME280;13360;48.152;-1.788;2023-02-28T02:44:02;102624.19;;;5.51;100.00
25430;BME280;13360;48.152;-1.788;2023-02-28T02:49:00;102632.25;;;5.46;100.00
25430;BME280;13360;48.152;-1.788;2023-02-28T02:51:27;102626.97;;;5.44;100.00
25430;BME280;13360;48.152;-1.788;2023-02-28T02:54:02;102629.09;;;5.42;100.00
25430;BME280;13360;48.152;-1.788;2023-02-28T02:56:31;102623.41;;;5.37;100.00
25430;BME280;13360;48.152;-1.788;2023-02-28T02:59:04;102628.44;;;5.40;100.00
25430;BME280;13360;48.152;-1.788;2023-02-28T03:01:31;102637.31;;;5.42;100.00
25430;BME280;13360;48.152;-1.788;2023-02-28T03:04:05;102630.56;;;5.38;100.00
25430;BME280;13360;48.152;-1.788;2023-02-28T03:06:32;102628.25;;;5.35;100.00
25430;BME280;13360;48.152;-1.788;2023-02-28T03:08:59;102625.34;;;5.30;100.00
25430;BME280;13360;48.152;-1.788;2023-02-28T03:11:25;102634.16;;;5.32;100.00
25430;BME280;13360;48.152;-1.788;2023-02-28T03:14:08;102626.56;;;5.34;100.00
25430;BME280;13360;48.152;-1.788;2023-02-28T03:16:49;102624.06;;;5.33;100.00
25430;BME280;13360;48.152;-1.788;2023-02-28T03:28:10;102623.03;;;5.27;100.00
25430;BME280;13360;48.152;-1.788;2023-02-28T03:33:21;102621.16;;;5.21;100.00
25430;BME280;13360;48.152;-1.788;2023-02-28T03:35:58;102622.22;;;5.13;100.00
25430;BME280;13360;48.152;-1.788;2023-02-28T03:38:47;102624.53;;;5.10;100.00
25430;BME280;13360;48.152;-1.788;2023-02-28T03:41:19;102628.97;;;5.11;100.00
25430;BME280;13360;48.152;-1.788;2023-02-28T03:43:52;102618.44;;;5.08;100.00
25430;BME280;13360;48.152;-1.788;2023-02-28T03:46:21;102623.28;;;5.06;100.00
25430;BME280;13360;48.152;-1.788;2023-02-28T03:49:08;102619.94;;;5.04;100.00
25430;BME280;13360;48.152;-1.788;2023-02-28T03:51:38;102618.88;;;5.05;100.00
25430;BME280;13360;48.152;-1.788;2023-02-28T03:54:09;102623.91;;;5.08;100.00
25430;BME280;13360;48.152;-1.788;2023-02-28T03:56:41;102610.44;;;5.00;100.00
25430;BME280;13360;48.152;-1.788;2023-02-28T03:59:17;102618.47;;;5.01;100.00
25430;BME280;13360;48.152;-1.788;2023-02-28T04:01:46;102624.34;;;5.05;100.00
25430;BME280;13360;48.152;-1.788;2023-02-28T04:04:13;102613.16;;;5.00;100.00
25430;BME280;13360;48.152;-1.788;2023-02-28T04:06:39;102622.25;;;5.00;100.00
25430;BME280;13360;48.152;-1.788;2023-02-28T04:09:07;102620.56;;;5.06;100.00
25430;BME280;13360;48.152;-1.788;2023-02-28T04:13:58;102605.38;;;4.97;100.00
25430;BME280;13360;48.152;-1.788;2023-02-28T04:16:23;102611.94;;;4.96;100.00
25430;BME280;13360;48.152;-1.788;2023-02-28T04:18:48;102611.31;;;4.94;100.00
25430;BME280;13360;48.152;-1.788;2023-02-28T04:21:14;102606.47;;;4.89;100.00
25430;BME280;13360;48.152;-1.788;2023-02-28T04:23:39;102615.53;;;4.89;100.00
25430;BME280;13360;48.152;-1.788;2023-02-28T04:26:05;102626.91;;;4.86;100.00
25430;BME280;13360;48.152;-1.788;2023-02-28T04:28:31;102621.66;;;4.85;100.00
25430;BME280;13360;48.152;-1.788;2023-02-28T04:31:02;102631.13;;;4.82;100.00
25430;BME280;13360;48.152;-1.788;2023-02-28T04:33:28;102638.72;;;4.80;100.00
25430;BME280;13360;48.152;-1.788;2023-02-28T04:36:05;102634.50;;;4.78;100.00
25430;BME280;13360;48.152;-1.788;2023-02-28T04:38:33;102637.88;;;4.80;100.00
25430;BME280;13360;48.152;-1.788;2023-02-28T04:40:59;102636.63;;;4.82;100.00
25430;BME280;13360;48.152;-1.788;2023-02-28T04:43:26;102637.88;;;4.86;100.00
25430;BME280;13360;48.152;-1.788;2023-02-28T04:45:52;102632.38;;;4.86;100.00
25430;BME280;13360;48.152;-1.788;2023-02-28T04:48:19;102627.13;;;4.78;100.00
25430;BME280;13360;48.152;-1.788;2023-02-28T04:50:44;102631.97;;;4.76;100.00
25430;BME280;13360;48.152;-1.788;2023-02-28T04:53:10;102630.28;;;4.75;100.00
25430;BME280;13360;48.152;-1.788;2023-02-28T04:55:35;102629.03;;;4.71;100.00
25430;BME280;13360;48.152;-1.788;2023-02-28T04:58:00;102638.72;;;4.67;100.00
25430;BME280;13360;48.152;-1.788;2023-02-28T05:00:26;102641.25;;;4.69;100.00
25430;BME280;13360;48.152;-1.788;2023-02-28T05:02:51;102653.25;;;4.68;100.00
25430;BME280;13360;48.152;-1.788;2023-02-28T05:05:16;102644.63;;;4.64;100.00
25430;BME280;13360;48.152;-1.788;2023-02-28T05:07:44;102654.53;;;4.65;100.00
25430;BME280;13360;48.152;-1.788;2023-02-28T05:10:11;102649.25;;;4.64;100.00
25430;BME280;13360;48.152;-1.788;2023-02-28T05:12:36;102648.41;;;4.63;100.00
25430;BME280;13360;48.152;-1.788;2023-02-28T05:15:03;102656.63;;;4.63;100.00
25430;BME280;13360;48.152;-1.788;2023-02-28T05:17:30;102657.69;;;4.62;100.00
25430;BME280;13360;48.152;-1.788;2023-02-28T05:19:55;102657.25;;;4.58;100.00
25430;BME280;13360;48.152;-1.788;2023-02-28T05:22:20;102657.88;;;4.54;100.00
25430;BME280;13360;48.152;-1.788;2023-02-28T05:24:46;102663.97;;;4.56;100.00
25430;BME280;13360;48.152;-1.788;2023-02-28T05:27:11;102662.28;;;4.55;100.00
25430;BME280;13360;48.152;-1.788;2023-02-28T05:29:36;102664.59;;;4.51;100.00
25430;BME280;13360;48.152;-1.788;2023-02-28T05:32:11;102669.25;;;4.51;100.00
25430;BME280;13360;48.152;-1.788;2023-02-28T05:34:38;102671.75;;;4.52;100.00
25430;BME280;13360;48.152;-1.788;2023-02-28T05:37:04;102685.03;;;4.49;100.00
25430;BME280;13360;48.152;-1.788;2023-02-28T05:39:29;102671.97;;;4.44;100.00
25430;BME280;13360;48.152;-1.788;2023-02-28T05:41:54;102677.47;;;4.44;100.00
25430;BME280;13360;48.152;-1.788;2023-02-28T05:44:20;102686.72;;;4.43;100.00
25430;BME280;13360;48.152;-1.788;2023-02-28T05:46:45;102690.50;;;4.42;100.00
25430;BME280;13360;48.152;-1.788;2023-02-28T05:49:11;102687.97;;;4.41;100.00
25430;BME280;13360;48.152;-1.788;2023-02-28T05:51:36;102693.03;;;4.44;100.00
25430;BME280;13360;48.152;-1.788;2023-02-28T05:54:05;102688.63;;;4.43;100.00
25430;BME280;13360;48.152;-1.788;2023-02-28T05:56:30;102696.19;;;4.41;100.00
25430;BME280;13360;48.152;-1.788;2023-02-28T05:58:56;102700.19;;;4.38;100.00
25430;BME280;13360;48.152;-1.788;2023-02-28T06:01:37;102704.41;;;4.41;100.00
25430;BME280;13360;48.152;-1.788;2023-02-28T06:04:05;102700.19;;;4.38;100.00
25430;BME280;13360;48.152;-1.788;2023-02-28T06:06:31;102699.34;;;4.38;100.00
25430;BME280;13360;48.152;-1.788;2023-02-28T06:08:59;102702.72;;;4.40;100.00
25430;BME280;13360;48.152;-1.788;2023-02-28T06:11:25;102702.28;;;4.43;100.00
25430;BME280;13360;48.152;-1.788;2023-02-28T06:13:59;102684.16;;;4.35;100.00
25430;BME280;13360;48.152;-1.788;2023-02-28T06:16:26;102701.03;;;4.39;100.00
25430;BME280;13360;48.152;-1.788;2023-02-28T06:18:52;102696.41;;;4.39;100.00
25430;BME280;13360;48.152;-1.788;2023-02-28T06:21:20;102694.72;;;4.38;100.00
25430;BME280;13360;48.152;-1.788;2023-02-28T06:23:46;102698.94;;;4.41;100.00
25430;BME280;13360;48.152;-1.788;2023-02-28T06:26:11;102692.81;;;4.39;100.00
25430;BME280;13360;48.152;-1.788;2023-02-28T06:28:36;102695.31;;;4.34;100.00
25430;BME280;13360;48.152;-1.788;2023-02-28T06:31:09;102696.38;;;4.33;100.00
25430;BME280;13360;48.152;-1.788;2023-02-28T06:33:36;102694.69;;;4.32;100.00
25430;BME280;13360;48.152;-1.788;2023-02-28T06:36:01;102695.72;;;4.31;100.00
25430;BME280;13360;48.152;-1.788;2023-02-28T06:38:27;102701.84;;;4.33;100.00
25430;BME280;13360;48.152;-1.788;2023-02-28T06:40:54;102694.69;;;4.32;100.00
25430;BME280;13360;48.152;-1.788;2023-02-28T06:43:19;102691.94;;;4.25;100.00
25430;BME280;13360;48.152;-1.788;2023-02-28T06:45:44;102691.53;;;4.21;100.00
25430;BME280;13360;48.152;-1.788;2023-02-28T06:48:10;102689.59;;;4.15;100.00
25430;BME280;13360;48.152;-1.788;2023-02-28T06:50:35;102683.47;;;4.07;100.00
25430;BME280;13360;48.152;-1.788;2023-02-28T06:53:01;102700.53;;;4.09;100.00
25430;BME280;13360;48.152;-1.788;2023-02-28T06:55:26;102705.38;;;4.13;100.00
25430;BME280;13360;48.152;-1.788;2023-02-28T06:57:51;102697.78;;;4.15;100.00
25430;BME280;13360;48.152;-1.788;2023-02-28T07:00:17;102709.78;;;4.14;100.00
25430;BME280;13360;48.152;-1.788;2023-02-28T07:02:42;102698.84;;;4.14;100.00
25430;BME280;13360;48.152;-1.788;2023-02-28T07:05:08;102708.75;;;4.15;100.00
25430;BME280;13360;48.152;-1.788;2023-02-28T07:07:33;102700.53;;;4.09;100.00
25430;BME280;13360;48.152;-1.788;2023-02-28T07:10:01;102713.56;;;4.07;100.00
25430;BME280;13360;48.152;-1.788;2023-02-28T07:12:26;102711.88;;;4.06;100.00
25430;BME280;13360;48.152;-1.788;2023-02-28T07:14:52;102717.78;;;4.09;100.00
25430;BME280;13360;48.152;-1.788;2023-02-28T07:17:17;102712.31;;;4.09;100.00
25430;BME280;13360;48.152;-1.788;2023-02-28T07:19:42;102724.94;;;4.10;100.00
25430;BME280;13360;48.152;-1.788;2023-02-28T07:22:08;102724.91;;;4.04;100.00
25430;BME280;13360;48.152;-1.788;2023-02-28T07:24:33;102732.09;;;4.11;100.00
25430;BME280;13360;48.152;-1.788;2023-02-28T07:26:58;102744.72;;;4.12;100.00
25430;BME280;13360;48.152;-1.788;2023-02-28T07:29:25;102735.03;;;4.16;100.00
25430;BME280;13360;48.152;-1.788;2023-02-28T07:31:50;102735.03;;;4.16;100.00
25430;BME280;13360;48.152;-1.788;2023-02-28T07:34:18;102745.19;;;4.22;100.00
25430;BME280;13360;48.152;-1.788;2023-02-28T07:36:44;102751.06;;;4.19;100.00
25430;BME280;13360;48.152;-1.788;2023-02-28T07:39:09;102745.13;;;4.09;100.00
25430;BME280;13360;48.152;-1.788;2023-02-28T07:41:35;102752.06;;;4.05;100.00
25430;BME280;13360;48.152;-1.788;2023-02-28T07:44:04;102749.91;;;3.94;100.00
25430;BME280;13360;48.152;-1.788;2023-02-28T07:46:30;102768.28;;;4.13;100.00
25430;BME280;13360;48.152;-1.788;2023-02-28T07:49:00;102771.66;;;4.15;100.00
25430;BME280;13360;48.152;-1.788;2023-02-28T07:51:30;102760.31;;;4.18;100.00
25430;BME280;13360;48.152;-1.788;2023-02-28T07:53:56;102753.19;;;4.31;100.00
25430;BME280;13360;48.152;-1.788;2023-02-28T07:56:22;102775.06;;;4.31;100.00
25430;BME280;13360;48.152;-1.788;2023-02-28T07:58:47;102759.09;;;4.27;100.00
25430;BME280;13360;48.152;-1.788;2023-02-28T08:01:13;102770.84;;;4.21;100.00
25430;BME280;13360;48.152;-1.788;2023-02-28T08:03:39;102780.13;;;4.34;100.00
25430;BME280;13360;48.152;-1.788;2023-02-28T08:06:06;102758.44;;;4.25;100.00
25430;BME280;13360;48.152;-1.788;2023-02-28T08:08:32;102785.19;;;4.37;100.00
25430;BME280;13360;48.152;-1.788;2023-02-28T08:10:59;102770.50;;;4.44;100.00
25430;BME280;13360;48.152;-1.788;2023-02-28T08:13:26;102788.88;;;4.64;100.00
25430;BME280;13360;48.152;-1.788;2023-02-28T08:15:53;102764.66;;;4.61;100.00
25430;BME280;13360;48.152;-1.788;2023-02-28T08:18:20;102773.06;;;4.72;100.00
25430;BME280;13360;48.152;-1.788;2023-02-28T08:20:45;102765.53;;;4.81;100.00
25430;BME280;13360;48.152;-1.788;2023-02-28T08:23:10;102777.72;;;4.92;100.00
25430;BME280;13360;48.152;-1.788;2023-02-28T08:25:36;102775.84;;;5.05;100.00
25430;BME280;13360;48.152;-1.788;2023-02-28T08:28:01;102773.94;;;5.12;100.00
25430;BME280;13360;48.152;-1.788;2023-02-28T08:30:26;102763.41;;;5.09;100.00
25430;BME280;13360;48.152;-1.788;2023-02-28T08:32:52;102781.09;;;5.20;100.00
25430;BME280;13360;48.152;-1.788;2023-02-28T08:35:17;102764.88;;;5.18;100.00
25430;BME280;13360;48.152;-1.788;2023-02-28T08:37:42;102783.44;;;5.30;100.00
25430;BME280;13360;48.152;-1.788;2023-02-28T08:40:08;102758.78;;;5.23;100.00
25430;BME280;13360;48.152;-1.788;2023-02-28T08:42:34;102773.94;;;5.45;100.00
25430;BME280;13360;48.152;-1.788;2023-02-28T08:44:59;102779.38;;;5.59;100.00
25430;BME280;13360;48.152;-1.788;2023-02-28T08:47:25;102809.06;;;5.81;100.00
25430;BME280;13360;48.152;-1.788;2023-02-28T08:49:50;102792.38;;;5.96;100.00
25430;BME280;13360;48.152;-1.788;2023-02-28T08:52:15;102773.38;;;6.01;100.00
25430;BME280;13360;48.152;-1.788;2023-02-28T08:54:41;102758.19;;;6.05;100.00
25430;BME280;13360;48.152;-1.788;2023-02-28T08:57:06;102758.09;;;6.19;100.00
25430;BME280;13360;48.152;-1.788;2023-02-28T08:59:32;102755.53;;;6.24;100.00
25430;BME280;13360;48.152;-1.788;2023-02-28T09:01:57;102731.94;;;6.16;100.00
25430;BME280;13360;48.152;-1.788;2023-02-28T09:04:23;102744.94;;;6.34;100.00
25430;BME280;13360;48.152;-1.788;2023-02-28T09:06:48;102747.13;;;6.57;100.00
25430;BME280;13360;48.152;-1.788;2023-02-28T09:09:14;102753.09;;;6.79;100.00
25430;BME280;13360;48.152;-1.788;2023-02-28T09:11:39;102736.53;;;6.92;100.00
25430;BME280;13360;48.152;-1.788;2023-02-28T09:14:05;102717.59;;;7.02;100.00
25430;BME280;13360;48.152;-1.788;2023-02-28T09:16:31;102733.88;;;7.03;100.00
25430;BME280;13360;48.152;-1.788;2023-02-28T09:18:57;102736.69;;;6.97;100.00
25430;BME280;13360;48.152;-1.788;2023-02-28T09:21:23;102717.38;;;7.03;100.00
25430;BME280;13360;48.152;-1.788;2023-02-28T09:23:49;102731.50;;;7.07;100.00
25430;BME280;13360;48.152;-1.788;2023-02-28T09:26:22;102729.72;;;7.19;100.00
25430;BME280;13360;48.152;-1.788;2023-02-28T09:28:47;102737.88;;;7.26;100.00
25430;BME280;13360;48.152;-1.788;2023-02-28T09:31:15;102748.66;;;7.52;100.00
25430;BME280;13360;48.152;-1.788;2023-02-28T09:33:41;102754.75;;;7.91;100.00
25430;BME280;13360;48.152;-1.788;2023-02-28T09:36:07;102765.50;;;8.29;100.00
25430;BME280;13360;48.152;-1.788;2023-02-28T09:38:32;102726.06;;;8.35;100.00
25430;BME280;13360;48.152;-1.788;2023-02-28T09:41:04;102735.59;;;8.63;100.00
25430;BME280;13360;48.152;-1.788;2023-02-28T09:43:41;102723.44;;;8.94;100.00
25430;BME280;13360;48.152;-1.788;2023-02-28T09:46:37;102719.63;;;9.06;100.00
25430;BME280;13360;48.152;-1.788;2023-02-28T09:49:08;102725.50;;;8.98;100.00
25430;BME280;13360;48.152;-1.788;2023-02-28T09:51:47;102746.88;;;9.38;100.00
25430;BME280;13360;48.152;-1.788;2023-02-28T09:54:21;102727.78;;;9.60;100.00
25430;BME280;13360;48.152;-1.788;2023-02-28T09:57:33;102730.72;;;9.82;100.00
25430;BME280;13360;48.152;-1.788;2023-02-28T10:00:21;102738.13;;;9.93;100.00
25430;BME280;13360;48.152;-1.788;2023-02-28T10:03:12;102737.34;;;9.81;100.00
25430;BME280;13360;48.152;-1.788;2023-02-28T10:05:51;102752.09;;;10.15;100.00
25430;BME280;13360;48.152;-1.788;2023-02-28T10:08:31;102747.75;;;10.42;100.00
25430;BME280;13360;48.152;-1.788;2023-02-28T10:11:02;102733.00;;;10.53;100.00
25430;BME280;13360;48.152;-1.788;2023-02-28T10:16:40;102746.25;;;10.23;100.00
25430;BME280;13360;48.152;-1.788;2023-02-28T10:19:19;102744.41;;;10.28;100.00
25430;BME280;13360;48.152;-1.788;2023-02-28T10:24:37;102729.94;;;9.98;96.85
25430;BME280;13360;48.152;-1.788;2023-02-28T10:27:16;102747.19;;;9.65;98.56
25430;BME280;13360;48.152;-1.788;2023-02-28T10:29:47;102748.88;;;9.54;99.88
25430;BME280;13360;48.152;-1.788;2023-02-28T10:32:19;102719.41;;;9.20;98.08
25430;BME280;13360;48.152;-1.788;2023-02-28T10:34:52;102710.50;;;9.06;97.83
25430;BME280;13360;48.152;-1.788;2023-02-28T10:37:19;102721.19;;;9.02;97.74
25430;BME280;13360;48.152;-1.788;2023-02-28T10:39:46;102711.47;;;9.00;97.73
25430;BME280;13360;48.152;-1.788;2023-02-28T10:44:46;102718.16;;;8.92;96.91
25430;BME280;13360;48.152;-1.788;2023-02-28T10:47:19;102750.44;;;9.03;99.41
25430;BME280;13360;48.152;-1.788;2023-02-28T10:49:49;102699.81;;;8.86;97.07
25430;BME280;13360;48.152;-1.788;2023-02-28T10:52:33;102704.38;;;8.92;97.85
25430;BME280;13360;48.152;-1.788;2023-02-28T10:55:24;102717.44;;;8.85;97.04
25430;BME280;13360;48.152;-1.788;2023-02-28T10:57:50;102713.97;;;8.90;97.41
25430;BME280;13360;48.152;-1.788;2023-02-28T11:00:22;102719.59;;;8.83;94.84
25430;BME280;13360;48.152;-1.788;2023-02-28T11:02:48;102740.19;;;8.80;97.39
25430;BME280;13360;48.152;-1.788;2023-02-28T11:05:32;102734.56;;;8.87;97.97
25430;BME280;13360;48.152;-1.788;2023-02-28T11:08:15;102716.47;;;8.91;97.56
25430;BME280;13360;48.152;-1.788;2023-02-28T11:10:46;102709.25;;;8.67;95.41
25430;BME280;13360;48.152;-1.788;2023-02-28T11:13:20;102722.78;;;8.68;97.28
25430;BME280;13360;48.152;-1.788;2023-02-28T11:15:57;102715.00;;;8.65;98.03
25430;BME280;13360;48.152;-1.788;2023-02-28T11:21:02;102732.44;;;8.47;98.93
25430;BME280;13360;48.152;-1.788;2023-02-28T11:23:30;102763.81;;;8.76;100.00
25430;BME280;13360;48.152;-1.788;2023-02-28T11:26:00;102773.88;;;8.94;100.00
25430;BME280;13360;48.152;-1.788;2023-02-28T11:28:35;102736.25;;;8.88;100.00
25430;BME280;13360;48.152;-1.788;2023-02-28T11:31:04;102733.72;;;8.86;100.00
25430;BME280;13360;48.152;-1.788;2023-02-28T11:33:47;102686.97;;;8.68;100.00
25430;BME280;13360;48.152;-1.788;2023-02-28T11:36:19;102694.06;;;8.76;100.00
25430;BME280;13360;48.152;-1.788;2023-02-28T11:38:45;102677.16;;;8.72;100.00
25430;BME280;13360;48.152;-1.788;2023-02-28T11:41:41;102685.66;;;8.71;100.00
25430;BME280;13360;48.152;-1.788;2023-02-28T11:47:17;102686.56;;;8.53;100.00
25430;BME280;13360;48.152;-1.788;2023-02-28T11:49:51;102726.78;;;8.84;100.00
25430;BME280;13360;48.152;-1.788;2023-02-28T11:52:29;102675.63;;;8.88;100.00
25430;BME280;13360;48.152;-1.788;2023-02-28T11:57:48;102649.25;;;8.92;100.00
25430;BME280;13360;48.152;-1.788;2023-02-28T12:19:23;102654.06;;;9.08;100.00
25430;BME280;13360;48.152;-1.788;2023-02-28T12:22:12;102643.03;;;9.20;100.00
25430;BME280;13360;48.152;-1.788;2023-02-28T12:27:27;102586.25;;;8.96;97.56
25430;BME280;13360;48.152;-1.788;2023-02-28T12:30:00;102624.22;;;9.05;100.00
25430;BME280;13360;48.152;-1.788;2023-02-28T12:32:32;102582.16;;;8.98;98.01
25430;BME280;13360;48.152;-1.788;2023-02-28T12:37:38;102602.63;;;9.14;99.52
25430;BME280;13360;48.152;-1.788;2023-02-28T12:40:33;102601.19;;;9.23;100.00
25430;BME280;13360;48.152;-1.788;2023-02-28T12:43:04;102604.69;;;9.19;100.00
25430;BME280;13360;48.152;-1.788;2023-02-28T12:45:56;102585.81;;;9.15;99.88
25430;BME280;13360;48.152;-1.788;2023-02-28T12:48:44;102565.00;;;9.08;100.00
25430;BME280;13360;48.152;-1.788;2023-02-28T12:51:12;102568.63;;;8.97;99.83
25430;BME280;13360;48.152;-1.788;2023-02-28T12:56:54;102565.50;;;9.05;100.00
25430;BME280;13360;48.152;-1.788;2023-02-28T12:59:32;102555.56;;;8.92;100.00
25430;BME280;13360;48.152;-1.788;2023-02-28T13:10:10;102603.31;;;9.33;100.00
25430;BME280;13360;48.152;-1.788;2023-02-28T13:12:35;102558.84;;;9.29;100.00
25430;BME280;13360;48.152;-1.788;2023-02-28T13:15:12;102559.56;;;9.25;100.00
25430;BME280;13360;48.152;-1.788;2023-02-28T13:17:41;102559.09;;;9.28;100.00
25430;BME280;13360;48.152;-1.788;2023-02-28T13:20:21;102575.72;;;9.44;100.00
25430;BME280;13360;48.152;-1.788;2023-02-28T13:22:51;102570.53;;;9.48;100.00
25430;BME280;13360;48.152;-1.788;2023-02-28T13:27:58;102566.44;;;9.51;100.00
25430;BME280;13360;48.152;-1.788;2023-02-28T13:33:30;102531.72;;;9.38;100.00
25430;BME280;13360;48.152;-1.788;2023-02-28T13:36:09;102584.75;;;9.57;100.00
25430;BME280;13360;48.152;-1.788;2023-02-28T13:59:43;102571.00;;;9.16;100.00
25430;BME280;13360;48.152;-1.788;2023-02-28T14:05:01;102590.41;;;9.22;100.00
25430;BME280;13360;48.152;-1.788;2023-02-28T14:08:04;102586.69;;;9.04;100.00
25430;BME280;13360;48.152;-1.788;2023-02-28T14:10:32;102606.69;;;9.23;100.00
25430;BME280;13360;48.152;-1.788;2023-02-28T14:13:02;102571.84;;;9.05;100.00
25430;BME280;13360;48.152;-1.788;2023-02-28T14:18:11;102605.41;;;8.91;100.00
25430;BME280;13360;48.152;-1.788;2023-02-28T14:20:40;102588.38;;;8.70;100.00
25430;BME280;13360;48.152;-1.788;2023-02-28T14:23:19;102612.50;;;8.75;100.00
25430;BME280;13360;48.152;-1.788;2023-02-28T14:29:00;102591.88;;;8.77;100.00
25430;BME280;13360;48.152;-1.788;2023-02-28T14:31:49;102608.50;;;8.94;100.00
25430;BME280;13360;48.152;-1.788;2023-02-28T14:34:55;102596.66;;;8.94;100.00
25430;BME280;13360;48.152;-1.788;2023-02-28T14:37:29;102602.28;;;8.87;100.00
25430;BME280;13360;48.152;-1.788;2023-02-28T14:39:56;102604.81;;;8.89;100.00
25430;BME280;13360;48.152;-1.788;2023-02-28T14:42:31;102610.19;;;8.72;100.00
25430;BME280;13360;48.152;-1.788;2023-02-28T14:44:57;102603.63;;;8.84;100.00
25430;BME280;13360;48.152;-1.788;2023-02-28T14:47:27;102605.53;;;8.96;100.00
25430;BME280;13360;48.152;-1.788;2023-02-28T14:49:53;102609.00;;;8.91;100.00
25430;BME280;13360;48.152;-1.788;2023-02-28T14:52:23;102593.06;;;9.05;100.00
25430;BME280;13360;48.152;-1.788;2023-02-28T14:54:58;102596.28;;;9.02;100.00
25430;BME280;13360;48.152;-1.788;2023-02-28T15:00:46;102589.94;;;9.01;100.00
25430;BME280;13360;48.152;-1.788;2023-02-28T15:02:43;102590.44;;;8.98;100.00
25430;BME280;13360;48.152;-1.788;2023-02-28T15:07:47;102577.22;;;9.12;100.00
25430;BME280;13360;48.152;-1.788;2023-02-28T15:10:20;102581.06;;;9.11;100.00